Anchor, Texas
Current Conditions -  °F | °C
As of 8:53 PM on Friday 31 Oct 2014 (Local Time) from KLBX Reporting Station
Clear Clear  
Wind Chill: 58°   Ceiling: Unl
Heat Index: 58°   Visibility: 10mi
Dew Point: 45°   Wind: 8mph
Humidity: 62%   Direction: 10°N
Pressure: 30.22"   Gusts: NA
Location:  29.1898°N, 95.4754°W
Report Text: KLBX 010153Z AUTO 01007KT 10SM CLR 14/07 A3022 RMK AO2 SLP234 T01440072
Loading
Personal Weather Stations






























Interactive Weather Map
Tropical Storm Tracking
New forecast layout! Learn more

10-Day Weather Forecast

Advertisements
Track Severe Weather on mobile